sensor_id;sensor_type;location;lat;lon;timestamp;temperature;humidity
7196;DHT22;3639;51.308;5.624;2023-07-13T00:00:23;15.80;99.90
7196;DHT22;3639;51.308;5.624;2023-07-13T00:02:49;15.80;99.90
7196;DHT22;3639;51.308;5.624;2023-07-13T00:05:15;15.70;99.90
7196;DHT22;3639;51.308;5.624;2023-07-13T00:07:41;15.60;99.90
7196;DHT22;3639;51.308;5.624;2023-07-13T00:10:08;15.60;99.90
7196;DHT22;3639;51.308;5.624;2023-07-13T00:12:37;15.60;99.90
7196;DHT22;3639;51.308;5.624;2023-07-13T00:15:06;15.60;99.90
7196;DHT22;3639;51.308;5.624;2023-07-13T00:17:33;15.60;99.90
7196;DHT22;3639;51.308;5.624;2023-07-13T00:19:58;15.50;99.90
7196;DHT22;3639;51.308;5.624;2023-07-13T00:22:25;15.50;99.90
7196;DHT22;3639;51.308;5.624;2023-07-13T00:24:54;15.50;99.90
7196;DHT22;3639;51.308;5.624;2023-07-13T00:27:23;15.50;99.90
7196;DHT22;3639;51.308;5.624;2023-07-13T00:29:49;15.50;99.90
7196;DHT22;3639;51.308;5.624;2023-07-13T00:32:15;15.50;99.90
7196;DHT22;3639;51.308;5.624;2023-07-13T00:34:40;15.50;99.90
7196;DHT22;3639;51.308;5.624;2023-07-13T00:37:07;15.50;99.90
7196;DHT22;3639;51.308;5.624;2023-07-13T00:39:34;15.50;99.90
7196;DHT22;3639;51.308;5.624;2023-07-13T00:42:00;15.40;99.90
7196;DHT22;3639;51.308;5.624;2023-07-13T00:44:26;15.40;99.90
7196;DHT22;3639;51.308;5.624;2023-07-13T00:46:53;15.40;99.90
7196;DHT22;3639;51.308;5.624;2023-07-13T00:49:20;15.40;99.90
7196;DHT22;3639;51.308;5.624;2023-07-13T00:54:26;15.40;99.90
7196;DHT22;3639;51.308;5.624;2023-07-13T00:56:55;15.30;99.90
7196;DHT22;3639;51.308;5.624;2023-07-13T00:59:24;15.30;99.90
7196;DHT22;3639;51.308;5.624;2023-07-13T01:01:50;15.20;99.90
7196;DHT22;3639;51.308;5.624;2023-07-13T01:04:17;15.20;99.90
7196;DHT22;3639;51.308;5.624;2023-07-13T01:06:43;15.20;99.90
7196;DHT22;3639;51.308;5.624;2023-07-13T01:09:10;15.20;99.90
7196;DHT22;3639;51.308;5.624;2023-07-13T01:11:36;15.20;99.90
7196;DHT22;3639;51.308;5.624;2023-07-13T01:14:04;15.30;99.90
7196;DHT22;3639;51.308;5.624;2023-07-13T01:16:32;15.30;99.90
7196;DHT22;3639;51.308;5.624;2023-07-13T01:18:58;15.30;99.90
7196;DHT22;3639;51.308;5.624;2023-07-13T01:21:25;15.30;99.90
7196;DHT22;3639;51.308;5.624;2023-07-13T01:23:51;15.30;99.90
7196;DHT22;3639;51.308;5.624;2023-07-13T01:26:17;15.30;99.90
7196;DHT22;3639;51.308;5.624;2023-07-13T01:28:43;15.30;99.90
7196;DHT22;3639;51.308;5.624;2023-07-13T01:31:09;15.30;99.90
7196;DHT22;3639;51.308;5.624;2023-07-13T01:33:37;15.30;99.90
7196;DHT22;3639;51.308;5.624;2023-07-13T01:36:03;15.20;99.90
7196;DHT22;3639;51.308;5.624;2023-07-13T01:38:29;15.20;99.90
7196;DHT22;3639;51.308;5.624;2023-07-13T01:40:55;15.10;99.90
7196;DHT22;3639;51.308;5.624;2023-07-13T01:43:20;15.20;99.90
7196;DHT22;3639;51.308;5.624;2023-07-13T01:45:47;15.10;99.90
7196;DHT22;3639;51.308;5.624;2023-07-13T01:48:13;15.10;99.90
7196;DHT22;3639;51.308;5.624;2023-07-13T01:50:38;15.00;99.90
7196;DHT22;3639;51.308;5.624;2023-07-13T01:53:04;15.00;99.90
7196;DHT22;3639;51.308;5.624;2023-07-13T01:55:31;14.90;99.90
7196;DHT22;3639;51.308;5.624;2023-07-13T01:57:57;14.90;99.90
7196;DHT22;3639;51.308;5.624;2023-07-13T02:00:23;14.90;99.90
7196;DHT22;3639;51.308;5.624;2023-07-13T02:02:50;14.90;99.90
7196;DHT22;3639;51.308;5.624;2023-07-13T02:05:16;14.80;99.90
7196;DHT22;3639;51.308;5.624;2023-07-13T02:07:42;14.80;99.90
7196;DHT22;3639;51.308;5.624;2023-07-13T02:10:09;14.80;99.90
7196;DHT22;3639;51.308;5.624;2023-07-13T02:12:35;14.80;99.90
7196;DHT22;3639;51.308;5.624;2023-07-13T02:15:03;14.80;99.90
7196;DHT22;3639;51.308;5.624;2023-07-13T02:17:29;14.80;99.90
7196;DHT22;3639;51.308;5.624;2023-07-13T02:19:54;14.80;99.90
7196;DHT22;3639;51.308;5.624;2023-07-13T02:22:21;14.80;99.90
7196;DHT22;3639;51.308;5.624;2023-07-13T02:24:47;14.70;99.90
7196;DHT22;3639;51.308;5.624;2023-07-13T02:27:13;14.70;99.90
7196;DHT22;3639;51.308;5.624;2023-07-13T02:29:38;14.70;99.90
7196;DHT22;3639;51.308;5.624;2023-07-13T02:32:04;14.70;99.90
7196;DHT22;3639;51.308;5.624;2023-07-13T02:34:30;14.70;99.90
7196;DHT22;3639;51.308;5.624;2023-07-13T02:36:56;14.70;99.90
7196;DHT22;3639;51.308;5.624;2023-07-13T02:39:22;14.80;99.90
7196;DHT22;3639;51.308;5.624;2023-07-13T02:41:47;14.70;99.90
7196;DHT22;3639;51.308;5.624;2023-07-13T02:44:14;14.70;99.90
7196;DHT22;3639;51.308;5.624;2023-07-13T02:46:40;14.70;99.90
7196;DHT22;3639;51.308;5.624;2023-07-13T02:49:06;14.70;99.90
7196;DHT22;3639;51.308;5.624;2023-07-13T02:51:32;14.70;99.90
7196;DHT22;3639;51.308;5.624;2023-07-13T02:54:03;14.60;99.90
7196;DHT22;3639;51.308;5.624;2023-07-13T02:56:31;14.60;99.90
7196;DHT22;3639;51.308;5.624;2023-07-13T02:58:57;14.50;99.90
7196;DHT22;3639;51.308;5.624;2023-07-13T03:01:23;14.50;99.90
7196;DHT22;3639;51.308;5.624;2023-07-13T03:03:50;14.50;99.90
7196;DHT22;3639;51.308;5.624;2023-07-13T03:06:16;14.50;99.90
7196;DHT22;3639;51.308;5.624;2023-07-13T03:08:43;14.40;99.90
7196;DHT22;3639;51.308;5.624;2023-07-13T03:11:12;14.40;99.90
7196;DHT22;3639;51.308;5.624;2023-07-13T03:13:39;14.30;99.90
7196;DHT22;3639;51.308;5.624;2023-07-13T03:16:05;14.30;99.90
7196;DHT22;3639;51.308;5.624;2023-07-13T03:18:32;14.20;99.90
7196;DHT22;3639;51.308;5.624;2023-07-13T03:20:57;14.20;99.90
7196;DHT22;3639;51.308;5.624;2023-07-13T03:23:24;14.20;99.90
7196;DHT22;3639;51.308;5.624;2023-07-13T03:25:50;14.20;99.90
7196;DHT22;3639;51.308;5.624;2023-07-13T03:28:25;14.20;99.90
7196;DHT22;3639;51.308;5.624;2023-07-13T03:31:02;14.10;99.90
7196;DHT22;3639;51.308;5.624;2023-07-13T03:33:28;14.20;99.90
7196;DHT22;3639;51.308;5.624;2023-07-13T03:35:54;14.20;99.90
7196;DHT22;3639;51.308;5.624;2023-07-13T03:38:20;14.20;99.90
7196;DHT22;3639;51.308;5.624;2023-07-13T03:40:45;14.10;99.90
7196;DHT22;3639;51.308;5.624;2023-07-13T03:43:11;14.10;99.90
7196;DHT22;3639;51.308;5.624;2023-07-13T03:45:40;14.20;99.90
7196;DHT22;3639;51.308;5.624;2023-07-13T03:48:06;14.10;99.90
7196;DHT22;3639;51.308;5.624;2023-07-13T03:50:32;14.10;99.90
7196;DHT22;3639;51.308;5.624;2023-07-13T03:52:58;14.10;99.90
7196;DHT22;3639;51.308;5.624;2023-07-13T03:55:24;14.20;99.90
7196;DHT22;3639;51.308;5.624;2023-07-13T04:00:50;14.20;99.90
7196;DHT22;3639;51.308;5.624;2023-07-13T04:03:16;14.20;99.90
7196;DHT22;3639;51.308;5.624;2023-07-13T04:05:42;14.20;99.90
7196;DHT22;3639;51.308;5.624;2023-07-13T04:08:08;14.20;99.90
7196;DHT22;3639;51.308;5.624;2023-07-13T04:10:34;14.30;99.90
7196;DHT22;3639;51.308;5.624;2023-07-13T04:12:59;14.30;99.90
7196;DHT22;3639;51.308;5.624;2023-07-13T04:15:30;14.30;99.90
7196;DHT22;3639;51.308;5.624;2023-07-13T04:17:58;14.30;99.90
7196;DHT22;3639;51.308;5.624;2023-07-13T04:20:25;14.40;99.90
7196;DHT22;3639;51.308;5.624;2023-07-13T04:22:51;14.40;99.90
7196;DHT22;3639;51.308;5.624;2023-07-13T04:25:19;14.40;99.90
7196;DHT22;3639;51.308;5.624;2023-07-13T04:27:44;14.40;99.90
7196;DHT22;3639;51.308;5.624;2023-07-13T04:30:10;14.50;99.90
7196;DHT22;3639;51.308;5.624;2023-07-13T04:32:37;14.50;99.90
7196;DHT22;3639;51.308;5.624;2023-07-13T04:35:02;14.50;99.90
7196;DHT22;3639;51.308;5.624;2023-07-13T04:37:28;14.50;99.90
7196;DHT22;3639;51.308;5.624;2023-07-13T04:39:54;14.60;99.90
7196;DHT22;3639;51.308;5.624;2023-07-13T04:42:20;14.70;99.90
7196;DHT22;3639;51.308;5.624;2023-07-13T04:44:50;14.80;99.90
7196;DHT22;3639;51.308;5.624;2023-07-13T04:47:16;14.80;99.90
7196;DHT22;3639;51.308;5.624;2023-07-13T04:49:42;14.80;99.90
7196;DHT22;3639;51.308;5.624;2023-07-13T04:52:08;14.80;99.90
7196;DHT22;3639;51.308;5.624;2023-07-13T04:54:34;14.80;99.90
7196;DHT22;3639;51.308;5.624;2023-07-13T04:57:00;14.90;99.90
7196;DHT22;3639;51.308;5.624;2023-07-13T04:59:26;14.90;99.90
7196;DHT22;3639;51.308;5.624;2023-07-13T05:01:52;14.90;99.90
7196;DHT22;3639;51.308;5.624;2023-07-13T05:04:18;15.10;99.90
7196;DHT22;3639;51.308;5.624;2023-07-13T05:06:44;15.30;99.90
7196;DHT22;3639;51.308;5.624;2023-07-13T05:09:10;15.50;99.90
7196;DHT22;3639;51.308;5.624;2023-07-13T05:11:36;15.70;99.90
7196;DHT22;3639;51.308;5.624;2023-07-13T05:14:04;15.80;99.90
7196;DHT22;3639;51.308;5.624;2023-07-13T05:16:30;15.90;99.90
7196;DHT22;3639;51.308;5.624;2023-07-13T05:18:57;16.10;99.90
7196;DHT22;3639;51.308;5.624;2023-07-13T05:21:23;16.20;99.90
7196;DHT22;3639;51.308;5.624;2023-07-13T05:23:49;16.20;99.90
7196;DHT22;3639;51.308;5.624;2023-07-13T05:26:15;16.20;99.90
7196;DHT22;3639;51.308;5.624;2023-07-13T05:28:41;16.20;99.90
7196;DHT22;3639;51.308;5.624;2023-07-13T05:31:09;16.30;99.90
7196;DHT22;3639;51.308;5.624;2023-07-13T05:33:35;16.40;99.90
7196;DHT22;3639;51.308;5.624;2023-07-13T05:36:01;16.50;99.90
7196;DHT22;3639;51.308;5.624;2023-07-13T05:38:27;16.50;99.90
7196;DHT22;3639;51.308;5.624;2023-07-13T05:40:54;16.60;99.90
7196;DHT22;3639;51.308;5.624;2023-07-13T05:43:21;16.60;99.90
7196;DHT22;3639;51.308;5.624;2023-07-13T05:45:47;16.60;99.90
7196;DHT22;3639;51.308;5.624;2023-07-13T05:48:13;16.70;99.90
7196;DHT22;3639;51.308;5.624;2023-07-13T05:50:38;16.70;99.90
7196;DHT22;3639;51.308;5.624;2023-07-13T05:53:04;16.80;99.90
7196;DHT22;3639;51.308;5.624;2023-07-13T05:55:30;16.80;99.90
7196;DHT22;3639;51.308;5.624;2023-07-13T05:57:56;16.90;99.90
7196;DHT22;3639;51.308;5.624;2023-07-13T06:00:24;16.90;99.90
7196;DHT22;3639;51.308;5.624;2023-07-13T06:02:50;17.00;99.90
7196;DHT22;3639;51.308;5.624;2023-07-13T06:05:15;17.10;99.90
7196;DHT22;3639;51.308;5.624;2023-07-13T06:07:42;17.20;99.90
7196;DHT22;3639;51.308;5.624;2023-07-13T06:10:08;17.20;99.90
7196;DHT22;3639;51.308;5.624;2023-07-13T06:12:34;17.30;99.90
7196;DHT22;3639;51.308;5.624;2023-07-13T06:15:00;17.30;99.90
7196;DHT22;3639;51.308;5.624;2023-07-13T06:17:26;17.40;99.90
7196;DHT22;3639;51.308;5.624;2023-07-13T06:19:51;17.40;99.90
7196;DHT22;3639;51.308;5.624;2023-07-13T06:22:17;17.40;99.90
7196;DHT22;3639;51.308;5.624;2023-07-13T06:24:43;17.40;99.90
7196;DHT22;3639;51.308;5.624;2023-07-13T06:27:08;17.40;99.90
7196;DHT22;3639;51.308;5.624;2023-07-13T06:29:34;17.40;99.90
7196;DHT22;3639;51.308;5.624;2023-07-13T06:32:00;17.50;99.90
7196;DHT22;3639;51.308;5.624;2023-07-13T06:34:26;17.60;99.90
7196;DHT22;3639;51.308;5.624;2023-07-13T06:36:52;17.60;99.90
7196;DHT22;3639;51.308;5.624;2023-07-13T06:39:18;17.70;99.90
7196;DHT22;3639;51.308;5.624;2023-07-13T06:41:43;17.70;99.90
7196;DHT22;3639;51.308;5.624;2023-07-13T06:44:09;17.70;99.90
7196;DHT22;3639;51.308;5.624;2023-07-13T06:46:35;17.70;99.90
7196;DHT22;3639;51.308;5.624;2023-07-13T06:49:00;17.80;99.90
7196;DHT22;3639;51.308;5.624;2023-07-13T06:51:26;17.80;99.90
7196;DHT22;3639;51.308;5.624;2023-07-13T06:53:52;17.80;99.90
7196;DHT22;3639;51.308;5.624;2023-07-13T06:56:17;17.90;99.90
7196;DHT22;3639;51.308;5.624;2023-07-13T06:58:43;17.90;99.90
7196;DHT22;3639;51.308;5.624;2023-07-13T07:01:09;17.90;99.90
7196;DHT22;3639;51.308;5.624;2023-07-13T07:03:35;18.00;99.90
7196;DHT22;3639;51.308;5.624;2023-07-13T07:06:21;18.00;99.90
7196;DHT22;3639;51.308;5.624;2023-07-13T07:08:50;18.20;99.90
7196;DHT22;3639;51.308;5.624;2023-07-13T07:11:22;18.30;99.90
7196;DHT22;3639;51.308;5.624;2023-07-13T07:13:48;18.40;99.90
7196;DHT22;3639;51.308;5.624;2023-07-13T07:16:15;18.40;99.90
7196;DHT22;3639;51.308;5.624;2023-07-13T07:18:40;18.40;99.90
7196;DHT22;3639;51.308;5.624;2023-07-13T07:21:06;18.40;99.90
7196;DHT22;3639;51.308;5.624;2023-07-13T07:23:32;18.50;99.90
7196;DHT22;3639;51.308;5.624;2023-07-13T07:25:58;18.60;99.90
7196;DHT22;3639;51.308;5.624;2023-07-13T07:28:23;18.60;99.90
7196;DHT22;3639;51.308;5.624;2023-07-13T07:30:52;18.70;99.90
7196;DHT22;3639;51.308;5.624;2023-07-13T07:33:18;18.80;99.90
7196;DHT22;3639;51.308;5.624;2023-07-13T07:35:44;18.90;99.90
7196;DHT22;3639;51.308;5.624;2023-07-13T07:38:10;19.00;99.90
7196;DHT22;3639;51.308;5.624;2023-07-13T07:40:40;19.10;99.90
7196;DHT22;3639;51.308;5.624;2023-07-13T07:43:07;19.10;99.90
7196;DHT22;3639;51.308;5.624;2023-07-13T07:45:33;19.20;99.90
7196;DHT22;3639;51.308;5.624;2023-07-13T07:47:59;19.40;99.90
7196;DHT22;3639;51.308;5.624;2023-07-13T07:50:25;19.50;99.90
7196;DHT22;3639;51.308;5.624;2023-07-13T07:52:51;19.70;99.90
7196;DHT22;3639;51.308;5.624;2023-07-13T07:55:17;19.80;99.90
7196;DHT22;3639;51.308;5.624;2023-07-13T07:57:43;19.80;99.90
7196;DHT22;3639;51.308;5.624;2023-07-13T08:00:09;19.70;99.90
7196;DHT22;3639;51.308;5.624;2023-07-13T08:02:35;19.70;99.90
7196;DHT22;3639;51.308;5.624;2023-07-13T08:05:01;19.80;99.90
7196;DHT22;3639;51.308;5.624;2023-07-13T08:07:26;19.80;99.90
7196;DHT22;3639;51.308;5.624;2023-07-13T08:09:53;19.90;99.90
7196;DHT22;3639;51.308;5.624;2023-07-13T08:12:19;19.90;99.90
7196;DHT22;3639;51.308;5.624;2023-07-13T08:14:44;20.10;99.90
7196;DHT22;3639;51.308;5.624;2023-07-13T08:17:10;20.40;99.90
7196;DHT22;3639;51.308;5.624;2023-07-13T08:19:35;20.40;99.90
7196;DHT22;3639;51.308;5.624;2023-07-13T08:22:02;20.50;99.90
7196;DHT22;3639;51.308;5.624;2023-07-13T08:24:28;20.80;99.90
7196;DHT22;3639;51.308;5.624;2023-07-13T08:26:53;21.00;99.90
7196;DHT22;3639;51.308;5.624;2023-07-13T08:29:20;21.10;99.90
7196;DHT22;3639;51.308;5.624;2023-07-13T08:31:46;21.10;99.90
7196;DHT22;3639;51.308;5.624;2023-07-13T08:34:11;21.20;99.90
7196;DHT22;3639;51.308;5.624;2023-07-13T08:36:37;21.10;99.90
7196;DHT22;3639;51.308;5.624;2023-07-13T08:39:02;21.00;99.90
7196;DHT22;3639;51.308;5.624;2023-07-13T08:41:28;21.00;99.90
7196;DHT22;3639;51.308;5.624;2023-07-13T08:43:58;21.20;99.90
7196;DHT22;3639;51.308;5.624;2023-07-13T08:46:36;21.20;99.90
7196;DHT22;3639;51.308;5.624;2023-07-13T08:49:08;21.20;99.90
7196;DHT22;3639;51.308;5.624;2023-07-13T08:51:52;21.30;99.90
7196;DHT22;3639;51.308;5.624;2023-07-13T08:54:36;21.50;99.90
7196;DHT22;3639;51.308;5.624;2023-07-13T08:57:10;21.40;99.90
7196;DHT22;3639;51.308;5.624;2023-07-13T08:59:37;21.50;99.90
7196;DHT22;3639;51.308;5.624;2023-07-13T09:05:08;21.30;99.90
7196;DHT22;3639;51.308;5.624;2023-07-13T09:10:30;21.10;99.90
7196;DHT22;3639;51.308;5.624;2023-07-13T09:13:33;21.10;99.90
7196;DHT22;3639;51.308;5.624;2023-07-13T09:16:03;21.20;99.90
7196;DHT22;3639;51.308;5.624;2023-07-13T09:18:36;21.20;99.90
7196;DHT22;3639;51.308;5.624;2023-07-13T09:21:32;21.30;99.90
7196;DHT22;3639;51.308;5.624;2023-07-13T09:24:16;21.40;99.90
7196;DHT22;3639;51.308;5.624;2023-07-13T09:26:47;21.40;99.90
7196;DHT22;3639;51.308;5.624;2023-07-13T09:29:22;21.40;99.90
7196;DHT22;3639;51.308;5.624;2023-07-13T09:31:54;21.60;99.90
7196;DHT22;3639;51.308;5.624;2023-07-13T09:34:21;21.90;99.90
7196;DHT22;3639;51.308;5.624;2023-07-13T09:36:46;22.20;99.90
7196;DHT22;3639;51.308;5.624;2023-07-13T09:44:55;23.00;99.90
7196;DHT22;3639;51.308;5.624;2023-07-13T09:47:28;23.10;99.90
7196;DHT22;3639;51.308;5.624;2023-07-13T09:49:57;23.30;99.90
7196;DHT22;3639;51.308;5.624;2023-07-13T09:52:24;23.30;99.90
7196;DHT22;3639;51.308;5.624;2023-07-13T09:54:51;23.30;99.90
7196;DHT22;3639;51.308;5.624;2023-07-13T09:57:23;23.20;99.90
7196;DHT22;3639;51.308;5.624;2023-07-13T09:59:51;23.20;99.90
7196;DHT22;3639;51.308;5.624;2023-07-13T10:02:28;23.40;99.90
7196;DHT22;3639;51.308;5.624;2023-07-13T10:05:02;23.40;99.90
7196;DHT22;3639;51.308;5.624;2023-07-13T10:07:30;23.20;99.90
7196;DHT22;3639;51.308;5.624;2023-07-13T10:09:57;22.90;99.90
7196;DHT22;3639;51.308;5.624;2023-07-13T10:12:23;22.80;99.90
7196;DHT22;3639;51.308;5.624;2023-07-13T10:14:52;22.80;99.90
7196;DHT22;3639;51.308;5.624;2023-07-13T10:17:29;22.70;99.90
7196;DHT22;3639;51.308;5.624;2023-07-13T10:20:04;22.80;99.90
7196;DHT22;3639;51.308;5.624;2023-07-13T10:25:20;23.00;99.90
7196;DHT22;3639;51.308;5.624;2023-07-13T10:27:50;23.30;99.90
7196;DHT22;3639;51.308;5.624;2023-07-13T10:30:29;23.40;99.90
7196;DHT22;3639;51.308;5.624;2023-07-13T10:33:03;23.40;99.90
7196;DHT22;3639;51.308;5.624;2023-07-13T10:35:34;23.30;99.90
7196;DHT22;3639;51.308;5.624;2023-07-13T10:40:31;22.90;99.90
7196;DHT22;3639;51.308;5.624;2023-07-13T10:42:59;22.70;99.90
7196;DHT22;3639;51.308;5.624;2023-07-13T10:45:27;22.70;99.90
7196;DHT22;3639;51.308;5.624;2023-07-13T10:47:54;22.60;99.90
7196;DHT22;3639;51.308;5.624;2023-07-13T10:50:29;22.50;99.90
7196;DHT22;3639;51.308;5.624;2023-07-13T10:53:03;22.30;99.90
7196;DHT22;3639;51.308;5.624;2023-07-13T10:58:22;22.20;99.90
7196;DHT22;3639;51.308;5.624;2023-07-13T11:01:10;22.60;99.90
7196;DHT22;3639;51.308;5.624;2023-07-13T11:18:53;23.50;99.90
7196;DHT22;3639;51.308;5.624;2023-07-13T11:21:33;23.70;99.90
7196;DHT22;3639;51.308;5.624;2023-07-13T11:24:17;23.80;99.90
7196;DHT22;3639;51.308;5.624;2023-07-13T11:31:41;24.00;99.90
7196;DHT22;3639;51.308;5.624;2023-07-13T11:34:14;24.00;99.90
7196;DHT22;3639;51.308;5.624;2023-07-13T11:36:43;24.00;99.90
7196;DHT22;3639;51.308;5.624;2023-07-13T11:39:19;24.10;99.90
7196;DHT22;3639;51.308;5.624;2023-07-13T11:41:55;24.00;99.90
7196;DHT22;3639;51.308;5.624;2023-07-13T11:44:24;23.90;99.90
7196;DHT22;3639;51.308;5.624;2023-07-13T11:46:53;23.80;99.90
7196;DHT22;3639;51.308;5.624;2023-07-13T11:49:23;23.70;99.90
7196;DHT22;3639;51.308;5.624;2023-07-13T11:51:49;23.80;99.90
7196;DHT22;3639;51.308;5.624;2023-07-13T11:54:27;23.80;99.90
7196;DHT22;3639;51.308;5.624;2023-07-13T11:57:01;23.90;99.90
7196;DHT22;3639;51.308;5.624;2023-07-13T11:59:29;24.00;99.90
7196;DHT22;3639;51.308;5.624;2023-07-13T12:01:55;23.80;99.90
7196;DHT22;3639;51.308;5.624;2023-07-13T12:04:28;23.80;99.90
7196;DHT22;3639;51.308;5.624;2023-07-13T12:07:07;23.80;99.90
7196;DHT22;3639;51.308;5.624;2023-07-13T12:09:34;23.90;99.90
7196;DHT22;3639;51.308;5.624;2023-07-13T12:12:02;24.00;99.90
7196;DHT22;3639;51.308;5.624;2023-07-13T12:14:28;23.80;99.90
7196;DHT22;3639;51.308;5.624;2023-07-13T12:16:54;23.80;99.90
7196;DHT22;3639;51.308;5.624;2023-07-13T12:19:27;23.70;99.90
7196;DHT22;3639;51.308;5.624;2023-07-13T12:21:57;23.70;99.90
7196;DHT22;3639;51.308;5.624;2023-07-13T12:24:25;23.80;99.80
7196;DHT22;3639;51.308;5.624;2023-07-13T12:26:54;24.00;99.90
7196;DHT22;3639;51.308;5.624;2023-07-13T12:29:20;24.20;99.90
7196;DHT22;3639;51.308;5.624;2023-07-13T12:31:49;24.10;99.00
7196;DHT22;3639;51.308;5.624;2023-07-13T12:34:17;24.30;98.60
7196;DHT22;3639;51.308;5.624;2023-07-13T12:36:50;24.40;98.10
7196;DHT22;3639;51.308;5.624;2023-07-13T12:39:45;24.30;98.80
7196;DHT22;3639;51.308;5.624;2023-07-13T12:44:58;24.50;98.90
7196;DHT22;3639;51.308;5.624;2023-07-13T12:47:25;24.60;99.30
7196;DHT22;3639;51.308;5.624;2023-07-13T12:49:56;24.60;98.80
7196;DHT22;3639;51.308;5.624;2023-07-13T12:52:28;24.60;98.40
7196;DHT22;3639;51.308;5.624;2023-07-13T12:54:58;24.40;98.80
7196;DHT22;3639;51.308;5.624;2023-07-13T12:57:25;24.50;99.10
7196;DHT22;3639;51.308;5.624;2023-07-13T12:59:55;24.80;98.80
7196;DHT22;3639;51.308;5.624;2023-07-13T13:02:30;24.90;98.00
7196;DHT22;3639;51.308;5.624;2023-07-13T13:04:58;24.80;97.60
7196;DHT22;3639;51.308;5.624;2023-07-13T13:07:25;24.60;97.60
7196;DHT22;3639;51.308;5.624;2023-07-13T13:09:51;24.40;98.00
7196;DHT22;3639;51.308;5.624;2023-07-13T13:12:19;24.30;98.10
7196;DHT22;3639;51.308;5.624;2023-07-13T13:14:44;24.10;97.90
7196;DHT22;3639;51.308;5.624;2023-07-13T13:17:30;23.90;98.20
7196;DHT22;3639;51.308;5.624;2023-07-13T13:19:57;23.70;99.00
7196;DHT22;3639;51.308;5.624;2023-07-13T13:22:23;23.60;99.90
7196;DHT22;3639;51.308;5.624;2023-07-13T13:24:49;23.20;99.60
7196;DHT22;3639;51.308;5.624;2023-07-13T13:27:20;22.90;99.90
7196;DHT22;3639;51.308;5.624;2023-07-13T13:29:49;22.50;99.90
7196;DHT22;3639;51.308;5.624;2023-07-13T13:32:17;22.20;99.90
7196;DHT22;3639;51.308;5.624;2023-07-13T13:34:43;22.00;99.90
7196;DHT22;3639;51.308;5.624;2023-07-13T13:37:20;21.80;99.90
7196;DHT22;3639;51.308;5.624;2023-07-13T13:39:47;21.70;99.90
7196;DHT22;3639;51.308;5.624;2023-07-13T13:42:12;21.30;99.90
7196;DHT22;3639;51.308;5.624;2023-07-13T13:44:38;21.20;99.90
7196;DHT22;3639;51.308;5.624;2023-07-13T13:49:55;21.40;99.90
7196;DHT22;3639;51.308;5.624;2023-07-13T13:52:20;21.40;99.90
7196;DHT22;3639;51.308;5.624;2023-07-13T13:54:46;21.50;99.90
7196;DHT22;3639;51.308;5.624;2023-07-13T13:57:12;21.60;99.90
7196;DHT22;3639;51.308;5.624;2023-07-13T13:59:38;21.80;99.90
7196;DHT22;3639;51.308;5.624;2023-07-13T14:02:22;21.80;99.90
7196;DHT22;3639;51.308;5.624;2023-07-13T14:04:56;21.80;99.90
7196;DHT22;3639;51.308;5.624;2023-07-13T14:07:22;21.70;99.90
7196;DHT22;3639;51.308;5.624;2023-07-13T14:09:48;21.70;99.90
7196;DHT22;3639;51.308;5.624;2023-07-13T14:12:14;21.50;99.90
7196;DHT22;3639;51.308;5.624;2023-07-13T14:14:40;21.30;99.90
7196;DHT22;3639;51.308;5.624;2023-07-13T14:17:19;21.30;99.90
7196;DHT22;3639;51.308;5.624;2023-07-13T14:19:48;21.20;99.90
7196;DHT22;3639;51.308;5.624;2023-07-13T14:22:17;21.10;99.90
7196;DHT22;3639;51.308;5.624;2023-07-13T14:24:43;21.10;99.90
7196;DHT22;3639;51.308;5.624;2023-07-13T14:27:12;21.00;99.90
7196;DHT22;3639;51.308;5.624;2023-07-13T14:29:38;21.00;99.90
7196;DHT22;3639;51.308;5.624;2023-07-13T14:32:04;21.00;99.90
7196;DHT22;3639;51.308;5.624;2023-07-13T14:34:31;20.90;99.90
7196;DHT22;3639;51.308;5.624;2023-07-13T14:36:57;20.90;99.90
7196;DHT22;3639;51.308;5.624;2023-07-13T14:39:24;20.90;99.90
7196;DHT22;3639;51.308;5.624;2023-07-13T14:41:52;20.90;99.90
7196;DHT22;3639;51.308;5.624;2023-07-13T14:44:24;20.90;99.90
7196;DHT22;3639;51.308;5.624;2023-07-13T14:46:50;21.00;99.90
7196;DHT22;3639;51.308;5.624;2023-07-13T14:49:30;20.90;99.90
7196;DHT22;3639;51.308;5.624;2023-07-13T14:51:59;21.10;99.90
7196;DHT22;3639;51.308;5.624;2023-07-13T14:54:25;21.10;99.90
7196;DHT22;3639;51.308;5.624;2023-07-13T14:56:51;21.20;99.90
7196;DHT22;3639;51.308;5.624;2023-07-13T14:59:17;21.30;99.90
7196;DHT22;3639;51.308;5.624;2023-07-13T15:01:48;21.30;99.90
7196;DHT22;3639;51.308;5.624;2023-07-13T15:04:14;21.50;99.90
7196;DHT22;3639;51.308;5.624;2023-07-13T15:06:58;21.60;99.90
7196;DHT22;3639;51.308;5.624;2023-07-13T15:09:25;21.70;99.90
7196;DHT22;3639;51.308;5.624;2023-07-13T15:11:55;21.70;99.90
7196;DHT22;3639;51.308;5.624;2023-07-13T15:14:22;21.80;99.90
7196;DHT22;3639;51.308;5.624;2023-07-13T15:16:49;21.80;99.90
7196;DHT22;3639;51.308;5.624;2023-07-13T15:19:17;21.90;99.90
7196;DHT22;3639;51.308;5.624;2023-07-13T15:21:43;22.00;99.90
7196;DHT22;3639;51.308;5.624;2023-07-13T15:24:10;22.20;99.90
7196;DHT22;3639;51.308;5.624;2023-07-13T15:26:36;22.20;99.90
7196;DHT22;3639;51.308;5.624;2023-07-13T15:29:02;22.40;99.90
7196;DHT22;3639;51.308;5.624;2023-07-13T15:31:28;22.70;99.90
7196;DHT22;3639;51.308;5.624;2023-07-13T15:33:57;22.80;99.90
7196;DHT22;3639;51.308;5.624;2023-07-13T15:36:25;22.80;99.90
7196;DHT22;3639;51.308;5.624;2023-07-13T15:38:55;22.80;99.90
7196;DHT22;3639;51.308;5.624;2023-07-13T15:41:22;22.80;99.90
7196;DHT22;3639;51.308;5.624;2023-07-13T15:43:51;22.90;99.90
7196;DHT22;3639;51.308;5.624;2023-07-13T15:46:21;23.00;99.90
7196;DHT22;3639;51.308;5.624;2023-07-13T15:48:48;23.00;99.90
7196;DHT22;3639;51.308;5.624;2023-07-13T15:51:24;22.90;99.90
7196;DHT22;3639;51.308;5.624;2023-07-13T15:53:53;23.00;99.90
7196;DHT22;3639;51.308;5.624;2023-07-13T15:56:22;23.00;99.90
7196;DHT22;3639;51.308;5.624;2023-07-13T15:58:50;23.10;99.80
7196;DHT22;3639;51.308;5.624;2023-07-13T16:01:16;23.00;99.90
7196;DHT22;3639;51.308;5.624;2023-07-13T16:03:42;23.00;99.90
7196;DHT22;3639;51.308;5.624;2023-07-13T16:06:27;23.00;99.90
7196;DHT22;3639;51.308;5.624;2023-07-13T16:08:54;23.00;99.90
7196;DHT22;3639;51.308;5.624;2023-07-13T16:13:46;22.90;99.90
7196;DHT22;3639;51.308;5.624;2023-07-13T16:16:13;22.90;99.90
7196;DHT22;3639;51.308;5.624;2023-07-13T16:18:39;22.90;99.90
7196;DHT22;3639;51.308;5.624;2023-07-13T16:21:14;22.90;99.90
7196;DHT22;3639;51.308;5.624;2023-07-13T16:23:42;22.80;99.90
7196;DHT22;3639;51.308;5.624;2023-07-13T16:26:30;22.70;99.90
7196;DHT22;3639;51.308;5.624;2023-07-13T16:29:19;22.50;99.90
7196;DHT22;3639;51.308;5.624;2023-07-13T16:34:34;22.50;99.90
7196;DHT22;3639;51.308;5.624;2023-07-13T16:37:02;22.50;99.90
7196;DHT22;3639;51.308;5.624;2023-07-13T16:39:30;22.40;99.90
7196;DHT22;3639;51.308;5.624;2023-07-13T16:41:58;22.40;99.90
7196;DHT22;3639;51.308;5.624;2023-07-13T16:44:25;22.30;99.90
7196;DHT22;3639;51.308;5.624;2023-07-13T16:46:54;22.20;99.90
7196;DHT22;3639;51.308;5.624;2023-07-13T16:49:27;22.20;99.90
7196;DHT22;3639;51.308;5.624;2023-07-13T16:51:54;22.10;99.90
7196;DHT22;3639;51.308;5.624;2023-07-13T16:54:25;22.00;99.90
7196;DHT22;3639;51.308;5.624;2023-07-13T16:56:50;22.10;99.90
7196;DHT22;3639;51.308;5.624;2023-07-13T16:59:29;22.00;99.90
7196;DHT22;3639;51.308;5.624;2023-07-13T17:01:55;22.00;99.90
7196;DHT22;3639;51.308;5.624;2023-07-13T17:04:25;21.90;99.90